sensor_id;sensor_type;location;lat;lon;timestamp;P1;durP1;ratioP1;P2;durP2;ratioP2
69414;SDS011;56608;43.530;-5.652;2022-10-20T00:00:11;3.55;;;1.15;;
69414;SDS011;56608;43.530;-5.652;2022-10-20T00:01:12;2.90;;;1.30;;
69414;SDS011;56608;43.530;-5.652;2022-10-20T00:02:14;2.40;;;1.20;;
69414;SDS011;56608;43.530;-5.652;2022-10-20T00:03:16;3.25;;;1.20;;
69414;SDS011;56608;43.530;-5.652;2022-10-20T00:04:17;8.57;;;1.73;;
69414;SDS011;56608;43.530;-5.652;2022-10-20T00:05:20;3.45;;;1.45;;
69414;SDS011;56608;43.530;-5.652;2022-10-20T00:06:25;3.70;;;1.55;;
69414;SDS011;56608;43.530;-5.652;2022-10-20T00:07:27;5.60;;;1.20;;
69414;SDS011;56608;43.530;-5.652;2022-10-20T00:08:28;2.75;;;1.35;;
69414;SDS011;56608;43.530;-5.652;2022-10-20T00:09:29;1.80;;;1.40;;
69414;SDS011;56608;43.530;-5.652;2022-10-20T00:10:31;4.10;;;1.40;;
69414;SDS011;56608;43.530;-5.652;2022-10-20T00:11:32;4.82;;;1.62;;
69414;SDS011;56608;43.530;-5.652;2022-10-20T00:12:34;1.85;;;1.30;;
69414;SDS011;56608;43.530;-5.652;2022-10-20T00:13:35;2.30;;;1.27;;
69414;SDS011;56608;43.530;-5.652;2022-10-20T00:14:38;2.35;;;1.35;;
69414;SDS011;56608;43.530;-5.652;2022-10-20T00:15:39;4.80;;;1.50;;
69414;SDS011;56608;43.530;-5.652;2022-10-20T00:16:39;2.75;;;1.65;;
69414;SDS011;56608;43.530;-5.652;2022-10-20T00:17:41;5.15;;;1.35;;
69414;SDS011;56608;43.530;-5.652;2022-10-20T00:18:44;2.40;;;1.10;;
69414;SDS011;56608;43.530;-5.652;2022-10-20T00:19:48;3.65;;;1.35;;
69414;SDS011;56608;43.530;-5.652;2022-10-20T00:20:49;4.10;;;1.75;;
69414;SDS011;56608;43.530;-5.652;2022-10-20T00:21:51;3.60;;;1.50;;
69414;SDS011;56608;43.530;-5.652;2022-10-20T00:22:53;3.05;;;1.20;;
69414;SDS011;56608;43.530;-5.652;2022-10-20T00:23:54;3.53;;;1.23;;
69414;SDS011;56608;43.530;-5.652;2022-10-20T00:26:00;2.80;;;1.10;;
69414;SDS011;56608;43.530;-5.652;2022-10-20T00:27:21;2.45;;;1.20;;
69414;SDS011;56608;43.530;-5.652;2022-10-20T00:29:24;2.50;;;1.20;;
69414;SDS011;56608;43.530;-5.652;2022-10-20T00:30:25;3.55;;;1.30;;
69414;SDS011;56608;43.530;-5.652;2022-10-20T00:31:27;3.47;;;1.20;;
69414;SDS011;56608;43.530;-5.652;2022-10-20T00:32:28;1.80;;;1.10;;
69414;SDS011;56608;43.530;-5.652;2022-10-20T00:33:30;2.05;;;1.10;;
69414;SDS011;56608;43.530;-5.652;2022-10-20T00:34:32;2.20;;;1.00;;
69414;SDS011;56608;43.530;-5.652;2022-10-20T00:35:36;1.65;;;1.00;;
69414;SDS011;56608;43.530;-5.652;2022-10-20T00:36:39;2.60;;;1.40;;
69414;SDS011;56608;43.530;-5.652;2022-10-20T00:37:40;1.77;;;1.27;;
69414;SDS011;56608;43.530;-5.652;2022-10-20T00:38:42;2.00;;;1.10;;
69414;SDS011;56608;43.530;-5.652;2022-10-20T00:39:44;3.00;;;1.20;;
69414;SDS011;56608;43.530;-5.652;2022-10-20T00:40:45;2.35;;;1.30;;
69414;SDS011;56608;43.530;-5.652;2022-10-20T00:41:47;1.85;;;1.15;;
69414;SDS011;56608;43.530;-5.652;2022-10-20T00:42:50;3.65;;;1.20;;
69414;SDS011;56608;43.530;-5.652;2022-10-20T00:43:53;2.97;;;1.20;;
69414;SDS011;56608;43.530;-5.652;2022-10-20T00:45:00;1.95;;;1.00;;
69414;SDS011;56608;43.530;-5.652;2022-10-20T00:46:00;2.70;;;1.20;;
69414;SDS011;56608;43.530;-5.652;2022-10-20T00:47:02;3.05;;;1.20;;
69414;SDS011;56608;43.530;-5.652;2022-10-20T00:48:05;2.97;;;1.40;;
69414;SDS011;56608;43.530;-5.652;2022-10-20T00:49:15;2.45;;;1.60;;
69414;SDS011;56608;43.530;-5.652;2022-10-20T00:50:22;2.35;;;1.40;;
69414;SDS011;56608;43.530;-5.652;2022-10-20T00:51:28;5.10;;;1.60;;
69414;SDS011;56608;43.530;-5.652;2022-10-20T00:52:30;1.65;;;1.00;;
69414;SDS011;56608;43.530;-5.652;2022-10-20T00:53:32;3.08;;;1.30;;
69414;SDS011;56608;43.530;-5.652;2022-10-20T00:54:34;1.65;;;1.15;;
69414;SDS011;56608;43.530;-5.652;2022-10-20T00:55:36;2.75;;;1.30;;
69414;SDS011;56608;43.530;-5.652;2022-10-20T00:56:43;2.90;;;1.10;;
69414;SDS011;56608;43.530;-5.652;2022-10-20T00:57:48;3.25;;;1.40;;
69414;SDS011;56608;43.530;-5.652;2022-10-20T00:58:51;3.30;;;1.20;;
69414;SDS011;56608;43.530;-5.652;2022-10-20T00:59:53;2.20;;;1.15;;
69414;SDS011;56608;43.530;-5.652;2022-10-20T01:00:55;1.80;;;1.10;;
69414;SDS011;56608;43.530;-5.652;2022-10-20T01:01:58;3.80;;;1.10;;
69414;SDS011;56608;43.530;-5.652;2022-10-20T01:03:02;3.90;;;1.15;;
69414;SDS011;56608;43.530;-5.652;2022-10-20T01:04:05;3.60;;;1.00;;
69414;SDS011;56608;43.530;-5.652;2022-10-20T01:06:08;1.48;;;0.93;;
69414;SDS011;56608;43.530;-5.652;2022-10-20T01:07:09;1.48;;;1.20;;
69414;SDS011;56608;43.530;-5.652;2022-10-20T01:08:11;1.73;;;1.33;;
69414;SDS011;56608;43.530;-5.652;2022-10-20T01:09:12;2.40;;;1.10;;
69414;SDS011;56608;43.530;-5.652;2022-10-20T01:10:14;2.55;;;1.00;;
69414;SDS011;56608;43.530;-5.652;2022-10-20T01:11:26;1.55;;;1.00;;
69414;SDS011;56608;43.530;-5.652;2022-10-20T01:12:36;2.10;;;1.10;;
69414;SDS011;56608;43.530;-5.652;2022-10-20T01:13:52;3.75;;;1.20;;
69414;SDS011;56608;43.530;-5.652;2022-10-20T01:15:08;3.55;;;1.30;;
69414;SDS011;56608;43.530;-5.652;2022-10-20T01:18:45;1.40;;;1.30;;
69414;SDS011;56608;43.530;-5.652;2022-10-20T01:28:26;3.85;;;1.40;;
69414;SDS011;56608;43.530;-5.652;2022-10-20T01:29:43;2.15;;;1.00;;
69414;SDS011;56608;43.530;-5.652;2022-10-20T01:30:54;2.10;;;1.00;;
69414;SDS011;56608;43.530;-5.652;2022-10-20T01:32:06;1.20;;;1.00;;
69414;SDS011;56608;43.530;-5.652;2022-10-20T01:34:46;1.15;;;0.80;;
69414;SDS011;56608;43.530;-5.652;2022-10-20T01:36:17;2.70;;;1.10;;
69414;SDS011;56608;43.530;-5.652;2022-10-20T01:37:28;2.55;;;0.90;;
69414;SDS011;56608;43.530;-5.652;2022-10-20T01:38:38;4.70;;;0.90;;
69414;SDS011;56608;43.530;-5.652;2022-10-20T01:41:01;2.05;;;0.80;;
69414;SDS011;56608;43.530;-5.652;2022-10-20T01:42:10;3.05;;;0.95;;
69414;SDS011;56608;43.530;-5.652;2022-10-20T01:43:17;3.00;;;0.80;;
69414;SDS011;56608;43.530;-5.652;2022-10-20T01:44:21;1.20;;;0.80;;
69414;SDS011;56608;43.530;-5.652;2022-10-20T01:45:26;1.45;;;0.80;;
69414;SDS011;56608;43.530;-5.652;2022-10-20T01:46:32;6.15;;;1.00;;
69414;SDS011;56608;43.530;-5.652;2022-10-20T01:47:37;1.00;;;0.60;;
69414;SDS011;56608;43.530;-5.652;2022-10-20T01:48:38;2.55;;;1.00;;
69414;SDS011;56608;43.530;-5.652;2022-10-20T01:50:44;2.40;;;1.00;;
69414;SDS011;56608;43.530;-5.652;2022-10-20T01:51:47;1.70;;;0.90;;
69414;SDS011;56608;43.530;-5.652;2022-10-20T01:52:55;3.25;;;0.80;;
69414;SDS011;56608;43.530;-5.652;2022-10-20T01:53:57;3.45;;;0.80;;
69414;SDS011;56608;43.530;-5.652;2022-10-20T01:56:00;5.75;;;0.93;;
69414;SDS011;56608;43.530;-5.652;2022-10-20T01:57:17;1.33;;;0.63;;
69414;SDS011;56608;43.530;-5.652;2022-10-20T02:01:59;1.40;;;0.90;;
69414;SDS011;56608;43.530;-5.652;2022-10-20T02:04:20;2.35;;;0.70;;
69414;SDS011;56608;43.530;-5.652;2022-10-20T02:08:06;1.90;;;0.80;;
69414;SDS011;56608;43.530;-5.652;2022-10-20T02:09:15;1.10;;;0.70;;
69414;SDS011;56608;43.530;-5.652;2022-10-20T02:10:21;3.40;;;0.80;;
69414;SDS011;56608;43.530;-5.652;2022-10-20T02:11:30;1.30;;;0.90;;
69414;SDS011;56608;43.530;-5.652;2022-10-20T02:12:45;1.85;;;1.05;;
69414;SDS011;56608;43.530;-5.652;2022-10-20T02:13:50;3.05;;;1.20;;
69414;SDS011;56608;43.530;-5.652;2022-10-20T02:14:54;1.75;;;0.70;;
69414;SDS011;56608;43.530;-5.652;2022-10-20T02:15:56;1.15;;;0.80;;
69414;SDS011;56608;43.530;-5.652;2022-10-20T02:17:11;1.80;;;1.20;;
69414;SDS011;56608;43.530;-5.652;2022-10-20T02:18:17;1.70;;;0.90;;
69414;SDS011;56608;43.530;-5.652;2022-10-20T02:19:22;2.00;;;0.85;;
69414;SDS011;56608;43.530;-5.652;2022-10-20T02:20:26;1.95;;;0.90;;
69414;SDS011;56608;43.530;-5.652;2022-10-20T02:21:30;1.70;;;0.90;;
69414;SDS011;56608;43.530;-5.652;2022-10-20T02:22:32;2.35;;;1.10;;
69414;SDS011;56608;43.530;-5.652;2022-10-20T02:23:34;2.10;;;1.20;;
69414;SDS011;56608;43.530;-5.652;2022-10-20T02:24:39;2.25;;;1.05;;
69414;SDS011;56608;43.530;-5.652;2022-10-20T02:25:42;1.85;;;1.10;;
69414;SDS011;56608;43.530;-5.652;2022-10-20T02:26:43;2.58;;;1.30;;
69414;SDS011;56608;43.530;-5.652;2022-10-20T02:27:47;2.45;;;1.10;;
69414;SDS011;56608;43.530;-5.652;2022-10-20T02:28:51;3.75;;;1.20;;
69414;SDS011;56608;43.530;-5.652;2022-10-20T02:30:05;2.50;;;1.30;;
69414;SDS011;56608;43.530;-5.652;2022-10-20T02:31:09;2.90;;;1.40;;
69414;SDS011;56608;43.530;-5.652;2022-10-20T02:33:13;2.60;;;1.20;;
69414;SDS011;56608;43.530;-5.652;2022-10-20T02:34:16;4.85;;;1.50;;
69414;SDS011;56608;43.530;-5.652;2022-10-20T02:35:19;3.47;;;1.62;;
69414;SDS011;56608;43.530;-5.652;2022-10-20T02:36:27;3.50;;;1.70;;
69414;SDS011;56608;43.530;-5.652;2022-10-20T02:37:29;4.10;;;1.60;;
69414;SDS011;56608;43.530;-5.652;2022-10-20T02:38:31;3.25;;;1.62;;
69414;SDS011;56608;43.530;-5.652;2022-10-20T02:39:31;3.43;;;1.80;;
69414;SDS011;56608;43.530;-5.652;2022-10-20T02:40:33;3.00;;;1.50;;
69414;SDS011;56608;43.530;-5.652;2022-10-20T02:41:35;4.87;;;2.05;;
69414;SDS011;56608;43.530;-5.652;2022-10-20T02:42:37;3.50;;;1.40;;
69414;SDS011;56608;43.530;-5.652;2022-10-20T02:43:43;5.15;;;1.60;;
69414;SDS011;56608;43.530;-5.652;2022-10-20T02:44:44;2.65;;;1.35;;
69414;SDS011;56608;43.530;-5.652;2022-10-20T02:45:45;3.75;;;1.50;;
69414;SDS011;56608;43.530;-5.652;2022-10-20T02:46:47;3.35;;;1.55;;
69414;SDS011;56608;43.530;-5.652;2022-10-20T02:47:48;4.25;;;2.00;;
69414;SDS011;56608;43.530;-5.652;2022-10-20T02:48:52;4.25;;;1.75;;
69414;SDS011;56608;43.530;-5.652;2022-10-20T02:49:54;5.20;;;1.70;;
69414;SDS011;56608;43.530;-5.652;2022-10-20T02:50:56;5.78;;;1.83;;
69414;SDS011;56608;43.530;-5.652;2022-10-20T02:51:59;4.50;;;1.70;;
69414;SDS011;56608;43.530;-5.652;2022-10-20T02:53:00;3.80;;;1.42;;
69414;SDS011;56608;43.530;-5.652;2022-10-20T02:54:02;4.20;;;2.00;;
69414;SDS011;56608;43.530;-5.652;2022-10-20T02:55:04;6.28;;;1.75;;
69414;SDS011;56608;43.530;-5.652;2022-10-20T02:56:06;6.43;;;2.07;;
69414;SDS011;56608;43.530;-5.652;2022-10-20T02:57:07;5.50;;;1.90;;
69414;SDS011;56608;43.530;-5.652;2022-10-20T02:58:09;5.33;;;1.83;;
69414;SDS011;56608;43.530;-5.652;2022-10-20T02:59:11;4.45;;;1.85;;
69414;SDS011;56608;43.530;-5.652;2022-10-20T03:00:14;2.40;;;1.67;;
69414;SDS011;56608;43.530;-5.652;2022-10-20T03:01:18;6.65;;;1.60;;
69414;SDS011;56608;43.530;-5.652;2022-10-20T03:02:19;2.30;;;1.33;;
69414;SDS011;56608;43.530;-5.652;2022-10-20T03:03:21;4.07;;;1.37;;
69414;SDS011;56608;43.530;-5.652;2022-10-20T03:04:22;3.90;;;1.67;;
69414;SDS011;56608;43.530;-5.652;2022-10-20T03:05:22;3.85;;;1.80;;
69414;SDS011;56608;43.530;-5.652;2022-10-20T03:06:27;3.70;;;1.60;;
69414;SDS011;56608;43.530;-5.652;2022-10-20T03:07:30;3.40;;;1.65;;
69414;SDS011;56608;43.530;-5.652;2022-10-20T03:08:31;3.80;;;1.65;;
69414;SDS011;56608;43.530;-5.652;2022-10-20T03:09:33;3.30;;;1.40;;
69414;SDS011;56608;43.530;-5.652;2022-10-20T03:10:34;4.60;;;1.60;;
69414;SDS011;56608;43.530;-5.652;2022-10-20T03:11:37;3.95;;;1.40;;
69414;SDS011;56608;43.530;-5.652;2022-10-20T03:12:40;2.40;;;1.30;;
69414;SDS011;56608;43.530;-5.652;2022-10-20T03:13:42;2.17;;;1.20;;
69414;SDS011;56608;43.530;-5.652;2022-10-20T03:14:43;4.12;;;1.60;;
69414;SDS011;56608;43.530;-5.652;2022-10-20T03:15:45;1.40;;;1.07;;
69414;SDS011;56608;43.530;-5.652;2022-10-20T03:16:46;1.50;;;0.90;;
69414;SDS011;56608;43.530;-5.652;2022-10-20T03:17:48;1.60;;;1.00;;
69414;SDS011;56608;43.530;-5.652;2022-10-20T03:18:51;4.50;;;1.20;;
69414;SDS011;56608;43.530;-5.652;2022-10-20T03:19:53;2.12;;;1.20;;
69414;SDS011;56608;43.530;-5.652;2022-10-20T03:20:54;3.40;;;1.30;;
69414;SDS011;56608;43.530;-5.652;2022-10-20T03:21:55;3.45;;;1.05;;
69414;SDS011;56608;43.530;-5.652;2022-10-20T03:22:58;3.15;;;1.20;;
69414;SDS011;56608;43.530;-5.652;2022-10-20T03:24:00;4.82;;;1.20;;
69414;SDS011;56608;43.530;-5.652;2022-10-20T03:25:01;1.90;;;1.00;;
69414;SDS011;56608;43.530;-5.652;2022-10-20T03:26:03;2.97;;;0.80;;
69414;SDS011;56608;43.530;-5.652;2022-10-20T03:27:07;2.55;;;0.80;;
69414;SDS011;56608;43.530;-5.652;2022-10-20T03:28:08;1.80;;;0.90;;
69414;SDS011;56608;43.530;-5.652;2022-10-20T03:29:10;2.37;;;0.75;;
69414;SDS011;56608;43.530;-5.652;2022-10-20T03:30:11;1.77;;;0.90;;
69414;SDS011;56608;43.530;-5.652;2022-10-20T03:31:12;3.00;;;1.05;;
69414;SDS011;56608;43.530;-5.652;2022-10-20T03:32:14;3.40;;;1.00;;
69414;SDS011;56608;43.530;-5.652;2022-10-20T03:33:15;1.60;;;0.80;;
69414;SDS011;56608;43.530;-5.652;2022-10-20T03:34:17;4.40;;;1.30;;
69414;SDS011;56608;43.530;-5.652;2022-10-20T03:35:18;1.10;;;0.77;;
69414;SDS011;56608;43.530;-5.652;2022-10-20T03:36:19;1.63;;;0.80;;
69414;SDS011;56608;43.530;-5.652;2022-10-20T03:37:20;3.95;;;1.20;;
69414;SDS011;56608;43.530;-5.652;2022-10-20T03:38:22;1.70;;;0.88;;
69414;SDS011;56608;43.530;-5.652;2022-10-20T03:39:23;1.50;;;0.95;;
69414;SDS011;56608;43.530;-5.652;2022-10-20T03:40:24;2.85;;;0.85;;
69414;SDS011;56608;43.530;-5.652;2022-10-20T03:41:26;2.05;;;1.00;;
69414;SDS011;56608;43.530;-5.652;2022-10-20T03:42:27;1.58;;;1.00;;
69414;SDS011;56608;43.530;-5.652;2022-10-20T03:43:29;3.87;;;0.90;;
69414;SDS011;56608;43.530;-5.652;2022-10-20T03:44:30;2.62;;;1.23;;
69414;SDS011;56608;43.530;-5.652;2022-10-20T03:45:31;2.35;;;1.05;;
69414;SDS011;56608;43.530;-5.652;2022-10-20T03:46:33;4.07;;;1.15;;
69414;SDS011;56608;43.530;-5.652;2022-10-20T03:47:36;3.20;;;1.00;;
69414;SDS011;56608;43.530;-5.652;2022-10-20T03:48:38;2.25;;;1.00;;
69414;SDS011;56608;43.530;-5.652;2022-10-20T03:49:40;1.20;;;0.60;;
69414;SDS011;56608;43.530;-5.652;2022-10-20T03:50:42;2.45;;;0.90;;
69414;SDS011;56608;43.530;-5.652;2022-10-20T03:52:46;2.33;;;1.10;;
69414;SDS011;56608;43.530;-5.652;2022-10-20T03:53:48;2.65;;;1.00;;
69414;SDS011;56608;43.530;-5.652;2022-10-20T03:54:49;1.05;;;0.68;;
69414;SDS011;56608;43.530;-5.652;2022-10-20T03:55:53;3.15;;;0.90;;
69414;SDS011;56608;43.530;-5.652;2022-10-20T03:56:54;1.10;;;0.80;;
69414;SDS011;56608;43.530;-5.652;2022-10-20T03:57:56;2.58;;;0.80;;
69414;SDS011;56608;43.530;-5.652;2022-10-20T03:59:59;2.67;;;1.23;;
69414;SDS011;56608;43.530;-5.652;2022-10-20T04:01:00;1.37;;;0.90;;
69414;SDS011;56608;43.530;-5.652;2022-10-20T04:02:02;1.35;;;0.80;;
69414;SDS011;56608;43.530;-5.652;2022-10-20T04:03:04;1.60;;;0.62;;
69414;SDS011;56608;43.530;-5.652;2022-10-20T04:04:05;4.03;;;0.80;;
69414;SDS011;56608;43.530;-5.652;2022-10-20T04:05:12;3.40;;;1.00;;
69414;SDS011;56608;43.530;-5.652;2022-10-20T04:06:17;2.45;;;0.95;;
69414;SDS011;56608;43.530;-5.652;2022-10-20T04:07:18;0.93;;;0.73;;
69414;SDS011;56608;43.530;-5.652;2022-10-20T04:08:21;2.20;;;0.90;;
69414;SDS011;56608;43.530;-5.652;2022-10-20T04:09:22;4.20;;;1.20;;
69414;SDS011;56608;43.530;-5.652;2022-10-20T04:10:24;7.35;;;0.90;;
69414;SDS011;56608;43.530;-5.652;2022-10-20T04:11:25;2.40;;;0.90;;
69414;SDS011;56608;43.530;-5.652;2022-10-20T04:12:27;1.90;;;0.85;;
69414;SDS011;56608;43.530;-5.652;2022-10-20T04:14:29;1.05;;;0.82;;
69414;SDS011;56608;43.530;-5.652;2022-10-20T04:15:31;1.65;;;0.80;;
69414;SDS011;56608;43.530;-5.652;2022-10-20T04:16:32;1.42;;;0.77;;
69414;SDS011;56608;43.530;-5.652;2022-10-20T04:17:34;1.67;;;0.93;;
69414;SDS011;56608;43.530;-5.652;2022-10-20T04:18:37;1.35;;;0.70;;
69414;SDS011;56608;43.530;-5.652;2022-10-20T04:19:39;1.87;;;0.75;;
69414;SDS011;56608;43.530;-5.652;2022-10-20T04:20:40;1.80;;;1.00;;
69414;SDS011;56608;43.530;-5.652;2022-10-20T04:21:43;2.05;;;0.85;;
69414;SDS011;56608;43.530;-5.652;2022-10-20T04:22:45;2.75;;;0.98;;
69414;SDS011;56608;43.530;-5.652;2022-10-20T04:23:47;2.10;;;1.00;;
69414;SDS011;56608;43.530;-5.652;2022-10-20T04:24:48;3.15;;;1.10;;
69414;SDS011;56608;43.530;-5.652;2022-10-20T04:25:49;1.73;;;1.00;;
69414;SDS011;56608;43.530;-5.652;2022-10-20T04:26:51;3.05;;;1.23;;
69414;SDS011;56608;43.530;-5.652;2022-10-20T04:27:52;2.22;;;1.20;;
69414;SDS011;56608;43.530;-5.652;2022-10-20T04:28:54;3.70;;;1.10;;
69414;SDS011;56608;43.530;-5.652;2022-10-20T04:29:57;2.10;;;1.20;;
69414;SDS011;56608;43.530;-5.652;2022-10-20T04:30:58;2.95;;;1.70;;
69414;SDS011;56608;43.530;-5.652;2022-10-20T04:32:00;4.15;;;1.60;;
69414;SDS011;56608;43.530;-5.652;2022-10-20T04:33:02;5.10;;;1.67;;
69414;SDS011;56608;43.530;-5.652;2022-10-20T04:34:03;2.60;;;1.90;;
69414;SDS011;56608;43.530;-5.652;2022-10-20T04:35:05;4.10;;;1.77;;
69414;SDS011;56608;43.530;-5.652;2022-10-20T04:36:07;3.10;;;1.90;;
69414;SDS011;56608;43.530;-5.652;2022-10-20T04:37:11;3.80;;;1.80;;
69414;SDS011;56608;43.530;-5.652;2022-10-20T04:38:13;2.60;;;1.67;;
69414;SDS011;56608;43.530;-5.652;2022-10-20T04:39:14;4.60;;;2.10;;
69414;SDS011;56608;43.530;-5.652;2022-10-20T04:41:17;4.85;;;2.05;;
69414;SDS011;56608;43.530;-5.652;2022-10-20T04:42:18;4.95;;;1.70;;
69414;SDS011;56608;43.530;-5.652;2022-10-20T04:43:19;2.80;;;1.60;;
69414;SDS011;56608;43.530;-5.652;2022-10-20T04:44:21;5.65;;;2.20;;
69414;SDS011;56608;43.530;-5.652;2022-10-20T04:45:22;5.80;;;2.08;;
69414;SDS011;56608;43.530;-5.652;2022-10-20T04:46:26;4.95;;;1.95;;
69414;SDS011;56608;43.530;-5.652;2022-10-20T04:47:31;5.82;;;2.55;;
69414;SDS011;56608;43.530;-5.652;2022-10-20T04:48:33;3.25;;;1.50;;
69414;SDS011;56608;43.530;-5.652;2022-10-20T04:49:34;4.93;;;1.67;;
69414;SDS011;56608;43.530;-5.652;2022-10-20T04:50:36;4.03;;;1.50;;
69414;SDS011;56608;43.530;-5.652;2022-10-20T04:51:37;2.37;;;1.42;;
69414;SDS011;56608;43.530;-5.652;2022-10-20T04:52:38;2.75;;;1.60;;
69414;SDS011;56608;43.530;-5.652;2022-10-20T04:53:40;3.33;;;1.52;;
69414;SDS011;56608;43.530;-5.652;2022-10-20T04:55:42;3.25;;;1.73;;
69414;SDS011;56608;43.530;-5.652;2022-10-20T04:56:45;5.05;;;1.30;;
69414;SDS011;56608;43.530;-5.652;2022-10-20T04:57:47;5.50;;;1.40;;
69414;SDS011;56608;43.530;-5.652;2022-10-20T04:58:49;2.70;;;1.20;;
69414;SDS011;56608;43.530;-5.652;2022-10-20T04:59:51;3.65;;;1.30;;
69414;SDS011;56608;43.530;-5.652;2022-10-20T05:00:53;2.75;;;1.40;;
69414;SDS011;56608;43.530;-5.652;2022-10-20T05:02:02;3.10;;;1.20;;
69414;SDS011;56608;43.530;-5.652;2022-10-20T05:03:05;3.50;;;1.50;;
69414;SDS011;56608;43.530;-5.652;2022-10-20T05:04:07;5.37;;;1.40;;
69414;SDS011;56608;43.530;-5.652;2022-10-20T05:05:09;4.60;;;1.45;;
69414;SDS011;56608;43.530;-5.652;2022-10-20T05:06:11;2.40;;;1.40;;
69414;SDS011;56608;43.530;-5.652;2022-10-20T05:07:18;2.95;;;1.20;;
69414;SDS011;56608;43.530;-5.652;2022-10-20T05:08:22;4.10;;;1.30;;
69414;SDS011;56608;43.530;-5.652;2022-10-20T05:09:22;7.17;;;1.50;;
69414;SDS011;56608;43.530;-5.652;2022-10-20T05:10:24;2.70;;;1.15;;
69414;SDS011;56608;43.530;-5.652;2022-10-20T05:11:26;3.30;;;1.50;;
69414;SDS011;56608;43.530;-5.652;2022-10-20T05:12:29;2.20;;;1.25;;
69414;SDS011;56608;43.530;-5.652;2022-10-20T05:13:30;2.50;;;1.45;;
69414;SDS011;56608;43.530;-5.652;2022-10-20T05:14:32;5.37;;;1.30;;
69414;SDS011;56608;43.530;-5.652;2022-10-20T05:15:33;3.15;;;1.40;;
69414;SDS011;56608;43.530;-5.652;2022-10-20T05:16:34;4.05;;;1.30;;
69414;SDS011;56608;43.530;-5.652;2022-10-20T05:17:36;2.60;;;1.40;;
69414;SDS011;56608;43.530;-5.652;2022-10-20T05:18:38;3.40;;;1.50;;
69414;SDS011;56608;43.530;-5.652;2022-10-20T05:19:41;3.30;;;1.50;;
69414;SDS011;56608;43.530;-5.652;2022-10-20T05:20:42;3.63;;;1.77;;
69414;SDS011;56608;43.530;-5.652;2022-10-20T05:21:44;5.55;;;2.47;;
69414;SDS011;56608;43.530;-5.652;2022-10-20T05:22:45;3.30;;;1.80;;
69414;SDS011;56608;43.530;-5.652;2022-10-20T05:23:46;2.70;;;1.17;;
69414;SDS011;56608;43.530;-5.652;2022-10-20T05:25:49;2.45;;;1.12;;
69414;SDS011;56608;43.530;-5.652;2022-10-20T05:26:52;2.92;;;1.40;;
69414;SDS011;56608;43.530;-5.652;2022-10-20T05:27:53;3.20;;;1.30;;
69414;SDS011;56608;43.530;-5.652;2022-10-20T05:28:54;3.45;;;1.50;;
69414;SDS011;56608;43.530;-5.652;2022-10-20T05:29:56;2.85;;;1.35;;
69414;SDS011;56608;43.530;-5.652;2022-10-20T05:31:01;2.87;;;1.52;;
69414;SDS011;56608;43.530;-5.652;2022-10-20T05:32:03;4.45;;;1.60;;
69414;SDS011;56608;43.530;-5.652;2022-10-20T05:33:05;2.10;;;1.12;;
69414;SDS011;56608;43.530;-5.652;2022-10-20T05:34:08;2.50;;;1.60;;
69414;SDS011;56608;43.530;-5.652;2022-10-20T05:35:11;3.25;;;1.40;;
69414;SDS011;56608;43.530;-5.652;2022-10-20T05:36:13;3.80;;;1.20;;
69414;SDS011;56608;43.530;-5.652;2022-10-20T05:37:17;2.35;;;1.30;;
69414;SDS011;56608;43.530;-5.652;2022-10-20T05:38:18;3.78;;;1.40;;
69414;SDS011;56608;43.530;-5.652;2022-10-20T05:39:19;6.75;;;1.35;;
69414;SDS011;56608;43.530;-5.652;2022-10-20T05:40:21;4.95;;;1.55;;
69414;SDS011;56608;43.530;-5.652;2022-10-20T05:41:24;3.25;;;1.30;;
69414;SDS011;56608;43.530;-5.652;2022-10-20T05:42:27;3.35;;;1.30;;
69414;SDS011;56608;43.530;-5.652;2022-10-20T05:44:30;5.15;;;1.70;;
69414;SDS011;56608;43.530;-5.652;2022-10-20T05:45:31;3.37;;;1.67;;
69414;SDS011;56608;43.530;-5.652;2022-10-20T05:46:36;4.50;;;1.40;;
69414;SDS011;56608;43.530;-5.652;2022-10-20T05:47:41;2.05;;;1.20;;
69414;SDS011;56608;43.530;-5.652;2022-10-20T05:48:45;2.90;;;1.70;;
69414;SDS011;56608;43.530;-5.652;2022-10-20T05:49:47;4.25;;;1.90;;
69414;SDS011;56608;43.530;-5.652;2022-10-20T05:50:48;2.53;;;1.42;;
69414;SDS011;56608;43.530;-5.652;2022-10-20T05:51:52;3.75;;;1.50;;
69414;SDS011;56608;43.530;-5.652;2022-10-20T05:52:53;4.95;;;1.60;;
69414;SDS011;56608;43.530;-5.652;2022-10-20T05:53:55;4.15;;;1.40;;
69414;SDS011;56608;43.530;-5.652;2022-10-20T05:55:00;3.95;;;1.65;;
69414;SDS011;56608;43.530;-5.652;2022-10-20T05:56:03;4.80;;;2.15;;
69414;SDS011;56608;43.530;-5.652;2022-10-20T05:57:06;5.50;;;2.00;;
69414;SDS011;56608;43.530;-5.652;2022-10-20T05:58:07;5.20;;;1.85;;
69414;SDS011;56608;43.530;-5.652;2022-10-20T05:59:11;5.45;;;2.12;;
69414;SDS011;56608;43.530;-5.652;2022-10-20T06:00:13;4.70;;;2.15;;
69414;SDS011;56608;43.530;-5.652;2022-10-20T06:01:17;11.10;;;2.30;;
69414;SDS011;56608;43.530;-5.652;2022-10-20T06:02:23;3.60;;;2.00;;
69414;SDS011;56608;43.530;-5.652;2022-10-20T06:03:24;7.47;;;2.30;;
69414;SDS011;56608;43.530;-5.652;2022-10-20T06:04:29;5.20;;;2.20;;
69414;SDS011;56608;43.530;-5.652;2022-10-20T06:05:31;6.30;;;2.10;;
69414;SDS011;56608;43.530;-5.652;2022-10-20T06:06:33;8.73;;;2.50;;
69414;SDS011;56608;43.530;-5.652;2022-10-20T06:07:34;5.25;;;2.10;;
69414;SDS011;56608;43.530;-5.652;2022-10-20T06:08:35;7.85;;;2.00;;
69414;SDS011;56608;43.530;-5.652;2022-10-20T06:09:37;6.10;;;2.00;;
69414;SDS011;56608;43.530;-5.652;2022-10-20T06:10:41;7.20;;;2.60;;
69414;SDS011;56608;43.530;-5.652;2022-10-20T06:11:42;7.18;;;2.30;;
69414;SDS011;56608;43.530;-5.652;2022-10-20T06:12:44;6.72;;;2.60;;
69414;SDS011;56608;43.530;-5.652;2022-10-20T06:13:45;10.52;;;3.83;;
69414;SDS011;56608;43.530;-5.652;2022-10-20T06:14:47;7.22;;;3.20;;
69414;SDS011;56608;43.530;-5.652;2022-10-20T06:15:48;6.50;;;3.10;;
69414;SDS011;56608;43.530;-5.652;2022-10-20T06:16:53;7.35;;;4.05;;
69414;SDS011;56608;43.530;-5.652;2022-10-20T06:17:55;7.50;;;2.50;;
69414;SDS011;56608;43.530;-5.652;2022-10-20T06:18:56;7.05;;;2.20;;
69414;SDS011;56608;43.530;-5.652;2022-10-20T06:21:01;3.80;;;1.85;;
69414;SDS011;56608;43.530;-5.652;2022-10-20T06:22:03;3.85;;;1.50;;
69414;SDS011;56608;43.530;-5.652;2022-10-20T06:23:05;4.10;;;2.05;;
69414;SDS011;56608;43.530;-5.652;2022-10-20T06:24:06;9.98;;;2.10;;
69414;SDS011;56608;43.530;-5.652;2022-10-20T06:25:08;7.20;;;2.00;;
69414;SDS011;56608;43.530;-5.652;2022-10-20T06:26:10;7.53;;;1.92;;
69414;SDS011;56608;43.530;-5.652;2022-10-20T06:27:16;4.30;;;1.60;;
69414;SDS011;56608;43.530;-5.652;2022-10-20T06:28:17;7.50;;;1.90;;
69414;SDS011;56608;43.530;-5.652;2022-10-20T06:29:19;6.12;;;1.87;;
69414;SDS011;56608;43.530;-5.652;2022-10-20T06:30:19;3.67;;;1.67;;
69414;SDS011;56608;43.530;-5.652;2022-10-20T06:31:25;5.25;;;1.80;;
69414;SDS011;56608;43.530;-5.652;2022-10-20T06:32:28;6.25;;;1.45;;
69414;SDS011;56608;43.530;-5.652;2022-10-20T06:33:29;3.35;;;1.42;;
69414;SDS011;56608;43.530;-5.652;2022-10-20T06:34:30;4.27;;;1.67;;
69414;SDS011;56608;43.530;-5.652;2022-10-20T06:35:31;5.20;;;1.80;;
69414;SDS011;56608;43.530;-5.652;2022-10-20T06:36:34;5.37;;;1.70;;
69414;SDS011;56608;43.530;-5.652;2022-10-20T06:37:36;4.20;;;1.30;;
69414;SDS011;56608;43.530;-5.652;2022-10-20T06:38:38;3.67;;;1.42;;
69414;SDS011;56608;43.530;-5.652;2022-10-20T06:39:40;4.35;;;1.65;;
69414;SDS011;56608;43.530;-5.652;2022-10-20T06:40:41;4.68;;;1.80;;
69414;SDS011;56608;43.530;-5.652;2022-10-20T06:41:45;5.00;;;1.70;;
69414;SDS011;56608;43.530;-5.652;2022-10-20T06:42:50;4.15;;;1.60;;
69414;SDS011;56608;43.530;-5.652;2022-10-20T06:43:53;2.45;;;1.10;;
69414;SDS011;56608;43.530;-5.652;2022-10-20T06:44:58;2.35;;;0.90;;
69414;SDS011;56608;43.530;-5.652;2022-10-20T06:46:01;5.07;;;3.12;;
69414;SDS011;56608;43.530;-5.652;2022-10-20T06:47:04;2.70;;;1.20;;
69414;SDS011;56608;43.530;-5.652;2022-10-20T06:48:10;5.20;;;2.00;;
69414;SDS011;56608;43.530;-5.652;2022-10-20T06:49:11;2.80;;;1.60;;